createdAt,value
2018-03-30T00:00:44.905Z,1.90
2018-03-30T00:03:13.121Z,1.90
2018-03-30T00:05:40.594Z,1.90
2018-03-30T00:08:08.113Z,2.00
2018-03-30T00:10:41.429Z,1.90
2018-03-30T00:13:08.925Z,1.90
2018-03-30T00:15:37.217Z,1.80
2018-03-30T00:18:04.758Z,1.80
2018-03-30T00:20:33.017Z,1.80
2018-03-30T00:23:00.501Z,1.80
2018-03-30T00:25:27.986Z,1.80
2018-03-30T00:27:55.486Z,1.70
2018-03-30T00:30:22.970Z,1.70
2018-03-30T00:32:50.453Z,1.70
2018-03-30T00:35:17.978Z,1.70
2018-03-30T00:37:46.222Z,1.60
2018-03-30T00:40:13.873Z,1.50
2018-03-30T00:42:41.373Z,1.50
2018-03-30T00:45:09.616Z,1.50
2018-03-30T00:47:37.106Z,1.50
2018-03-30T00:50:05.485Z,1.40
2018-03-30T00:52:33.729Z,1.40
2018-03-30T00:55:01.206Z,1.40
2018-03-30T00:57:29.473Z,1.40
2018-03-30T00:59:57.053Z,1.40
2018-03-30T01:02:25.297Z,1.30
2018-03-30T01:04:52.809Z,1.30
2018-03-30T01:07:20.342Z,1.30
2018-03-30T01:09:48.865Z,1.30
2018-03-30T01:12:16.381Z,1.30
2018-03-30T01:14:43.865Z,1.30
2018-03-30T01:17:11.347Z,1.30
2018-03-30T01:19:38.954Z,1.20
2018-03-30T01:22:07.194Z,1.20
2018-03-30T01:24:34.673Z,1.10
2018-03-30T01:27:02.245Z,1.10
2018-03-30T01:29:30.498Z,1.00
2018-03-30T01:31:57.982Z,1.00
2018-03-30T01:34:26.249Z,1.00
2018-03-30T01:36:54.497Z,1.00
2018-03-30T01:39:21.989Z,1.00
2018-03-30T01:41:50.513Z,1.00
2018-03-30T01:44:17.994Z,0.90
2018-03-30T01:46:45.485Z,0.90
2018-03-30T01:49:13.758Z,0.80
2018-03-30T01:51:42.037Z,0.80
2018-03-30T01:54:10.283Z,0.80
2018-03-30T01:56:37.785Z,0.80
2018-03-30T01:59:05.360Z,0.80
2018-03-30T02:01:32.825Z,0.70
2018-03-30T02:04:00.326Z,0.70
2018-03-30T02:06:27.900Z,0.70
2018-03-30T02:08:56.770Z,0.60
2018-03-30T02:11:24.819Z,0.50
2018-03-30T02:13:52.302Z,0.50
2018-03-30T02:16:20.545Z,0.40
2018-03-30T02:18:48.046Z,0.30
2018-03-30T02:21:16.298Z,0.30
2018-03-30T02:23:43.773Z,0.30
2018-03-30T02:26:11.269Z,0.40
2018-03-30T02:28:38.802Z,0.40
2018-03-30T02:31:07.081Z,0.50
2018-03-30T02:33:35.352Z,0.40
2018-03-30T02:36:03.598Z,0.40
2018-03-30T02:38:31.847Z,0.40
2018-03-30T02:40:59.345Z,0.40
2018-03-30T02:43:26.927Z,0.40
2018-03-30T02:45:55.174Z,0.40
2018-03-30T02:48:23.453Z,0.30
2018-03-30T02:50:50.954Z,0.30
2018-03-30T02:53:18.736Z,0.30
2018-03-30T02:55:46.238Z,0.30
2018-03-30T02:58:13.713Z,0.20
2018-03-30T03:00:41.957Z,0.20
2018-03-30T03:03:09.461Z,0.20
2018-03-30T03:05:36.998Z,0.20
2018-03-30T03:08:05.243Z,0.20
2018-03-30T03:10:32.740Z,0.10
2018-03-30T03:13:01.010Z,0.10
2018-03-30T03:15:29.322Z,0.10
2018-03-30T03:17:56.818Z,0.00
2018-03-30T03:20:24.292Z,0.00
2018-03-30T03:22:51.765Z,0.00
2018-03-30T03:25:20.031Z,-0.10
2018-03-30T03:27:48.285Z,-0.10
2018-03-30T03:30:17.266Z,-0.20
2018-03-30T03:32:44.760Z,-0.20
2018-03-30T03:35:13.005Z,-0.20
2018-03-30T03:37:40.485Z,-0.20
2018-03-30T03:40:08.758Z,-0.20
2018-03-30T03:42:36.320Z,-0.20
2018-03-30T03:45:04.577Z,-0.30
2018-03-30T03:47:32.161Z,-0.30
2018-03-30T03:50:00.685Z,-0.30
2018-03-30T03:52:28.164Z,-0.30
2018-03-30T03:54:55.690Z,-0.30
2018-03-30T03:57:23.215Z,-0.30
2018-03-30T03:59:51.461Z,-0.30
2018-03-30T04:02:19.197Z,-0.30
2018-03-30T04:04:46.680Z,-0.30
2018-03-30T04:07:14.166Z,-0.30
2018-03-30T04:09:42.438Z,-0.30
2018-03-30T04:12:10.682Z,-0.30
2018-03-30T04:14:38.185Z,-0.30
2018-03-30T04:17:06.450Z,-0.40
2018-03-30T04:19:34.731Z,-0.40
2018-03-30T04:22:03.257Z,-0.40
2018-03-30T04:24:30.753Z,-0.40
2018-03-30T04:26:58.232Z,-0.40
2018-03-30T04:29:26.477Z,-0.50
2018-03-30T04:31:53.974Z,-0.50
2018-03-30T04:34:21.457Z,-0.50
2018-03-30T04:36:48.933Z,-0.50
2018-03-30T04:39:16.541Z,-0.60
2018-03-30T04:41:44.784Z,-0.50
2018-03-30T04:44:12.264Z,-0.50
2018-03-30T04:46:40.538Z,-0.40
2018-03-30T04:49:08.794Z,-0.40
2018-03-30T04:51:36.377Z,-0.40
2018-03-30T04:54:04.649Z,-0.30
2018-03-30T04:56:32.897Z,-0.20
2018-03-30T04:59:00.377Z,-0.20
2018-03-30T05:01:28.649Z,-0.20
2018-03-30T05:03:56.125Z,-0.20
2018-03-30T05:06:23.606Z,-0.20
2018-03-30T05:08:51.101Z,-0.10
2018-03-30T05:11:18.892Z,-0.10
2018-03-30T05:13:47.321Z,-0.10
2018-03-30T05:16:14.822Z,-0.10
2018-03-30T05:18:43.066Z,0.10
2018-03-30T05:21:10.577Z,0.10
2018-03-30T05:23:38.073Z,0.20
2018-03-30T05:26:05.847Z,0.30
2018-03-30T05:28:33.325Z,0.80
2018-03-30T05:31:02.330Z,3.30
2018-03-30T05:33:30.577Z,4.40
2018-03-30T05:35:58.054Z,4.30
2018-03-30T05:38:26.357Z,3.80
2018-03-30T05:40:55.070Z,3.80
2018-03-30T05:43:22.551Z,3.20
2018-03-30T05:45:50.086Z,2.90
2018-03-30T05:48:17.561Z,2.60
2018-03-30T05:50:45.076Z,2.30
2018-03-30T05:53:14.261Z,2.10
2018-03-30T05:55:42.498Z,1.90
2018-03-30T05:58:09.974Z,1.90
2018-03-30T06:00:37.474Z,1.90
2018-03-30T06:03:05.004Z,1.80
2018-03-30T06:05:33.254Z,2.10
2018-03-30T06:08:00.758Z,2.00
2018-03-30T06:10:28.297Z,2.20
2018-03-30T06:12:56.545Z,2.50
2018-03-30T06:15:24.045Z,2.50
2018-03-30T06:17:51.522Z,2.70
2018-03-30T06:20:19.001Z,2.80
2018-03-30T06:22:46.496Z,2.90
2018-03-30T06:25:15.029Z,3.20
2018-03-30T06:27:42.545Z,3.20
2018-03-30T06:30:10.805Z,3.40
2018-03-30T06:32:38.298Z,3.40
2018-03-30T06:35:05.773Z,3.60
2018-03-30T06:37:33.270Z,4.00
2018-03-30T06:40:00.850Z,4.50
2018-03-30T06:42:29.128Z,6.10
2018-03-30T06:44:57.396Z,6.90
2018-03-30T06:47:25.638Z,7.30
2018-03-30T06:49:53.512Z,7.30
2018-03-30T06:52:20.994Z,7.10
2018-03-30T06:54:49.533Z,7.20
2018-03-30T06:57:17.009Z,7.20
2018-03-30T06:59:44.501Z,7.80
2018-03-30T07:02:12.745Z,8.70
2018-03-30T07:04:40.226Z,8.70
2018-03-30T07:07:08.485Z,10.30
2018-03-30T07:09:35.964Z,10.20
2018-03-30T07:12:04.241Z,11.90
2018-03-30T07:14:32.552Z,12.80
2018-03-30T07:17:00.026Z,12.80
2018-03-30T07:19:27.567Z,13.40
2018-03-30T07:21:55.126Z,13.80
2018-03-30T07:24:22.649Z,14.30
2018-03-30T07:26:50.961Z,15.70
2018-03-30T07:29:18.452Z,15.70
2018-03-30T07:31:45.929Z,16.20
2018-03-30T07:34:14.173Z,17.20
2018-03-30T07:36:41.696Z,17.20
2018-03-30T07:39:09.174Z,17.50
2018-03-30T07:41:36.653Z,18.00
2018-03-30T07:44:04.148Z,17.40
2018-03-30T07:46:32.393Z,18.20
2018-03-30T07:48:59.876Z,18.10
2018-03-30T07:51:28.509Z,17.30
2018-03-30T07:53:56.022Z,17.30
2018-03-30T07:56:24.269Z,15.60
2018-03-30T07:58:51.853Z,15.60
2018-03-30T08:01:20.094Z,15.00
2018-03-30T08:03:47.568Z,15.00
2018-03-30T08:06:15.079Z,13.60
2018-03-30T08:08:42.562Z,14.60
2018-03-30T08:11:10.042Z,13.80
2018-03-30T08:13:37.533Z,12.80
2018-03-30T08:16:05.006Z,14.30
2018-03-30T08:18:32.532Z,13.60
2018-03-30T08:21:01.068Z,12.80
2018-03-30T08:23:28.547Z,12.70
2018-03-30T08:25:57.533Z,13.00
2018-03-30T08:28:25.028Z,12.90
2018-03-30T08:30:53.273Z,12.20
2018-03-30T08:33:20.746Z,12.20
2018-03-30T08:35:49.029Z,12.10
2018-03-30T08:38:17.265Z,12.50
2018-03-30T08:40:44.798Z,12.50
2018-03-30T08:43:12.317Z,12.40
2018-03-30T08:45:40.566Z,12.00
2018-03-30T08:48:08.040Z,12.00
2018-03-30T08:50:35.545Z,12.70
2018-03-30T08:53:03.064Z,12.30
2018-03-30T08:55:31.310Z,13.00
2018-03-30T08:57:59.583Z,13.00
2018-03-30T09:00:27.077Z,13.00
2018-03-30T09:02:55.318Z,13.50
2018-03-30T09:05:22.821Z,13.40
2018-03-30T09:07:50.314Z,14.10
2018-03-30T09:10:17.789Z,14.20
2018-03-30T09:12:46.057Z,15.40
2018-03-30T09:15:13.543Z,15.40
2018-03-30T09:17:41.018Z,15.20
2018-03-30T09:20:09.278Z,15.50
2018-03-30T09:22:37.538Z,15.50
2018-03-30T09:25:05.013Z,15.50
2018-03-30T09:27:33.344Z,14.40
2018-03-30T09:30:01.547Z,15.10
2018-03-30T09:32:29.046Z,15.10
2018-03-30T09:34:57.298Z,14.40
2018-03-30T09:37:25.574Z,14.60
2018-03-30T09:39:53.831Z,14.80
2018-03-30T09:42:21.329Z,14.80
2018-03-30T09:44:48.806Z,15.40
2018-03-30T09:47:16.322Z,15.20
2018-03-30T09:49:44.849Z,15.60
2018-03-30T09:52:12.337Z,15.60
2018-03-30T09:54:39.821Z,15.50
2018-03-30T09:57:08.091Z,15.90
2018-03-30T09:59:36.373Z,15.80
2018-03-30T10:02:04.618Z,15.30
2018-03-30T10:04:32.122Z,15.20
2018-03-30T10:06:59.594Z,15.60
2018-03-30T10:09:27.129Z,16.00
2018-03-30T10:11:55.384Z,16.50
2018-03-30T10:14:22.861Z,16.50
2018-03-30T10:16:51.101Z,16.30
2018-03-30T10:19:19.536Z,16.30
2018-03-30T10:21:47.013Z,16.10
2018-03-30T10:24:14.486Z,16.00
2018-03-30T10:26:42.074Z,16.60
2018-03-30T10:29:10.313Z,17.10
2018-03-30T10:31:38.009Z,17.10
2018-03-30T10:34:05.581Z,16.70
2018-03-30T10:36:33.825Z,16.60
2018-03-30T10:39:01.307Z,16.60
2018-03-30T10:41:29.564Z,16.80
2018-03-30T10:43:57.829Z,16.70
2018-03-30T10:46:25.561Z,16.60
2018-03-30T10:48:53.050Z,16.50
2018-03-30T10:51:20.525Z,15.70
2018-03-30T10:53:48.022Z,16.10
2018-03-30T10:56:15.553Z,16.40
2018-03-30T10:58:43.798Z,17.10
2018-03-30T11:01:11.385Z,17.10
2018-03-30T11:03:39.734Z,16.30
2018-03-30T11:06:07.916Z,16.90
2018-03-30T11:08:36.192Z,17.10
2018-03-30T11:11:03.769Z,17.10
2018-03-30T11:13:32.022Z,16.70
2018-03-30T11:15:59.518Z,16.70
2018-03-30T11:18:27.065Z,17.60
2018-03-30T11:20:55.309Z,17.70
2018-03-30T11:23:22.804Z,17.70
2018-03-30T11:25:51.046Z,17.60
2018-03-30T11:28:18.529Z,17.50
2018-03-30T11:30:47.049Z,16.60
2018-03-30T11:33:14.529Z,16.60
2018-03-30T11:35:42.002Z,16.60
2018-03-30T11:38:09.498Z,17.20
2018-03-30T11:40:36.973Z,17.90
2018-03-30T11:43:04.449Z,17.50
2018-03-30T11:45:31.942Z,17.40
2018-03-30T11:48:00.190Z,17.50
2018-03-30T11:50:27.684Z,17.40
2018-03-30T11:52:55.970Z,17.10
2018-03-30T11:55:24.213Z,16.40
2018-03-30T11:57:51.689Z,16.40
2018-03-30T12:00:19.945Z,16.10
2018-03-30T12:02:48.237Z,16.30
2018-03-30T12:05:15.798Z,16.20
2018-03-30T12:07:44.059Z,15.90
2018-03-30T12:10:11.536Z,15.90
2018-03-30T12:12:39.778Z,15.40
2018-03-30T12:15:07.272Z,15.40
2018-03-30T12:17:35.513Z,15.50
2018-03-30T12:20:03.250Z,15.50
2018-03-30T12:22:30.761Z,15.60
2018-03-30T12:24:59.009Z,15.50
2018-03-30T12:27:26.486Z,15.40
2018-03-30T12:29:53.977Z,15.60
2018-03-30T12:32:21.562Z,15.60
2018-03-30T12:34:49.043Z,15.40
2018-03-30T12:37:18.311Z,15.30
2018-03-30T12:39:45.821Z,15.30
2018-03-30T12:42:14.245Z,15.10
2018-03-30T12:44:41.761Z,15.10
2018-03-30T12:47:10.004Z,14.80
2018-03-30T12:49:37.507Z,14.80
2018-03-30T12:52:05.002Z,14.70
2018-03-30T12:54:32.758Z,15.10
2018-03-30T12:57:00.521Z,14.90
2018-03-30T12:59:28.037Z,15.10
2018-03-30T13:01:56.273Z,15.20
2018-03-30T13:04:23.766Z,15.20
2018-03-30T13:06:52.009Z,14.90
2018-03-30T13:09:19.485Z,14.90
2018-03-30T13:11:46.976Z,14.90
2018-03-30T13:14:14.458Z,15.20
2018-03-30T13:16:41.934Z,15.40
2018-03-30T13:19:09.432Z,15.70
2018-03-30T13:21:37.674Z,15.80
2018-03-30T13:24:05.149Z,15.80
2018-03-30T13:26:32.657Z,15.40
2018-03-30T13:29:00.146Z,15.70
2018-03-30T13:31:27.617Z,16.00
2018-03-30T13:33:55.113Z,16.30
2018-03-30T13:36:22.597Z,15.90
2018-03-30T13:38:50.069Z,16.00
2018-03-30T13:41:17.587Z,15.50
2018-03-30T13:43:45.065Z,15.60
2018-03-30T13:46:12.574Z,15.50
2018-03-30T13:48:40.838Z,15.20
2018-03-30T13:51:17.474Z,15.30
2018-03-30T13:53:45.777Z,15.50
2018-03-30T13:56:15.098Z,15.40
2018-03-30T13:58:46.909Z,15.70
2018-03-30T14:01:17.159Z,15.70
2018-03-30T14:03:52.217Z,15.70
2018-03-30T14:19:55.022Z,15.60
2018-03-30T14:35:53.042Z,15.10
2018-03-30T14:38:36.444Z,15.10
2018-03-30T14:41:03.938Z,15.00
2018-03-30T14:43:33.885Z,15.00
2018-03-30T14:46:07.112Z,15.00
2018-03-30T14:48:37.828Z,15.10
2018-03-30T14:51:12.462Z,15.20
2018-03-30T14:53:41.463Z,15.30
2018-03-30T14:56:19.393Z,15.20
2018-03-30T14:58:57.596Z,15.20
2018-03-30T15:01:31.966Z,15.10
2018-03-30T15:04:01.473Z,15.00
2018-03-30T15:19:55.540Z,15.00
2018-03-30T15:22:29.621Z,15.00
2018-03-30T15:24:58.921Z,15.10
2018-03-30T15:27:27.986Z,15.30
2018-03-30T15:30:00.098Z,15.30
2018-03-30T15:45:50.841Z,14.60
2018-03-30T15:48:19.118Z,14.60
2018-03-30T15:50:46.673Z,14.60
2018-03-30T15:53:17.309Z,14.60
2018-03-30T15:55:47.466Z,14.60
2018-03-30T15:58:14.978Z,14.60
2018-03-30T16:00:42.474Z,14.70
2018-03-30T16:03:10.250Z,14.80
2018-03-30T16:05:37.725Z,14.80
2018-03-30T16:08:05.228Z,14.80
2018-03-30T16:10:34.926Z,14.80
2018-03-30T16:13:03.195Z,14.80
2018-03-30T16:15:30.690Z,14.80
2018-03-30T16:17:58.218Z,14.70
2018-03-30T16:20:25.999Z,14.80
2018-03-30T16:22:53.035Z,14.80
2018-03-30T16:25:20.805Z,14.50
2018-03-30T16:27:48.553Z,14.50
2018-03-30T16:30:16.325Z,14.50
2018-03-30T16:32:44.079Z,14.50
2018-03-30T16:35:11.842Z,14.50
2018-03-30T16:37:38.897Z,14.40
2018-03-30T16:40:06.646Z,14.50
2018-03-30T16:42:33.645Z,14.40
2018-03-30T16:45:00.655Z,14.40
2018-03-30T16:47:28.413Z,14.30
2018-03-30T16:49:56.161Z,14.30
2018-03-30T16:52:23.265Z,14.30
2018-03-30T16:54:50.249Z,14.20
2018-03-30T16:57:17.241Z,14.20
2018-03-30T16:59:44.249Z,14.00
2018-03-30T17:02:11.248Z,14.00
2018-03-30T17:04:38.234Z,14.00
2018-03-30T17:07:05.301Z,13.90
2018-03-30T17:09:33.050Z,13.90
2018-03-30T17:12:00.365Z,13.90
2018-03-30T17:14:27.384Z,13.80
2018-03-30T17:16:54.413Z,13.80
2018-03-30T17:19:22.162Z,13.70
2018-03-30T17:21:49.175Z,13.70
2018-03-30T17:24:16.173Z,13.70
2018-03-30T17:26:44.037Z,13.60
2018-03-30T17:29:11.813Z,13.60
2018-03-30T17:31:38.798Z,13.60
2018-03-30T17:34:05.777Z,13.60
2018-03-30T17:36:32.801Z,13.60
2018-03-30T17:38:59.794Z,13.60
2018-03-30T17:41:27.548Z,13.50
2018-03-30T17:43:55.346Z,13.50
2018-03-30T17:46:22.329Z,13.50
2018-03-30T17:48:49.405Z,13.50
2018-03-30T18:08:37.783Z,11.30
2018-03-30T18:11:04.785Z,11.30
2018-03-30T18:13:31.839Z,11.00
2018-03-30T18:15:58.850Z,10.60
2018-03-30T18:18:25.924Z,10.20
2018-03-30T18:20:52.989Z,10.00
2018-03-30T18:23:20.757Z,9.70
2018-03-30T18:25:48.509Z,9.60
2018-03-30T18:28:15.493Z,9.60
2018-03-30T18:30:42.507Z,9.50
2018-03-30T18:33:10.258Z,9.50
2018-03-30T18:35:37.238Z,9.50
2018-03-30T18:38:04.248Z,9.50
2018-03-30T18:40:32.018Z,9.30
2018-03-30T18:42:59.073Z,9.30
2018-03-30T18:45:27.086Z,9.40
2018-03-30T18:47:54.069Z,9.40
2018-03-30T18:50:21.119Z,9.40
2018-03-30T18:52:49.718Z,9.40
2018-03-30T18:55:17.467Z,9.50
2018-03-30T18:57:45.249Z,9.40
2018-03-30T19:00:13.153Z,9.40
2018-03-30T19:02:40.242Z,9.40
2018-03-30T19:05:07.289Z,9.40
2018-03-30T19:07:34.290Z,9.40
2018-03-30T19:10:01.274Z,9.50
2018-03-30T19:12:29.770Z,9.40
2018-03-30T19:14:57.545Z,9.40
2018-03-30T19:17:25.294Z,9.30
2018-03-30T19:19:52.295Z,9.30
2018-03-30T19:22:19.299Z,9.20
2018-03-30T19:24:47.133Z,9.30
2018-03-30T19:27:14.113Z,9.30
2018-03-30T19:29:42.176Z,9.30
2018-03-30T19:32:09.397Z,9.30
2018-03-30T19:34:36.377Z,9.30
2018-03-30T19:37:04.209Z,9.30
2018-03-30T19:39:32.012Z,9.20
2018-03-30T19:41:59.056Z,9.10
2018-03-30T19:44:26.921Z,9.20
2018-03-30T19:46:54.665Z,9.10
2018-03-30T19:49:21.772Z,9.10
2018-03-30T19:51:48.818Z,9.10
2018-03-30T19:54:15.905Z,9.10
2018-03-30T19:56:43.221Z,9.00
2018-03-30T19:59:10.221Z,9.00
2018-03-30T20:01:37.977Z,9.00
2018-03-30T20:04:06.466Z,9.00
2018-03-30T20:06:33.496Z,9.00
2018-03-30T20:09:00.485Z,9.00
2018-03-30T20:11:27.493Z,9.10
2018-03-30T20:13:54.500Z,9.00
2018-03-30T20:16:21.481Z,9.00
2018-03-30T20:18:48.542Z,8.90
2018-03-30T20:21:16.329Z,8.90
2018-03-30T20:23:43.309Z,8.90
2018-03-30T20:26:10.296Z,8.90
2018-03-30T20:28:38.061Z,8.80
2018-03-30T20:31:05.813Z,8.80
2018-03-30T20:33:32.874Z,8.80
2018-03-30T20:36:00.650Z,8.70
2018-03-30T20:38:27.633Z,8.70
2018-03-30T20:40:54.629Z,8.70
2018-03-30T20:43:22.405Z,8.70
2018-03-30T20:45:50.153Z,8.70
2018-03-30T20:48:17.898Z,8.70
2018-03-30T20:50:44.971Z,8.70
2018-03-30T20:53:12.721Z,8.80
2018-03-30T20:55:39.710Z,8.80
2018-03-30T20:58:06.713Z,8.80
2018-03-30T21:00:33.775Z,8.80
2018-03-30T21:03:01.522Z,8.70
2018-03-30T21:05:29.291Z,8.50
2018-03-30T21:07:57.108Z,8.40
2018-03-30T21:10:24.094Z,8.40
2018-03-30T21:12:51.149Z,8.50
2018-03-30T21:15:18.897Z,8.50
2018-03-30T21:17:47.397Z,8.30
2018-03-30T21:20:15.171Z,8.30
2018-03-30T21:22:42.938Z,8.30
2018-03-30T21:25:09.938Z,8.30
2018-03-30T21:27:36.941Z,8.20
2018-03-30T21:30:03.926Z,8.20
2018-03-30T21:32:30.913Z,8.20
2018-03-30T21:34:58.685Z,8.10
2018-03-30T21:37:26.429Z,8.20
2018-03-30T21:39:54.201Z,8.30
2018-03-30T21:42:21.969Z,8.40
2018-03-30T21:44:49.829Z,8.40
2018-03-30T21:47:17.577Z,8.40
2018-03-30T21:49:44.641Z,8.40
2018-03-30T21:52:12.405Z,8.40
2018-03-30T21:54:40.165Z,8.40
2018-03-30T21:57:07.933Z,8.40
2018-03-30T21:59:35.685Z,8.40
2018-03-30T22:02:02.674Z,8.30
2018-03-30T22:04:29.674Z,8.30
2018-03-30T22:06:56.657Z,8.30
2018-03-30T22:09:23.645Z,8.40
2018-03-30T22:11:50.654Z,8.40
2018-03-30T22:14:17.670Z,8.40
2018-03-30T22:16:45.417Z,8.20
2018-03-30T22:19:13.297Z,8.20
2018-03-30T22:21:41.053Z,8.20
2018-03-30T22:24:08.113Z,8.20
2018-03-30T22:26:35.898Z,8.20
2018-03-30T22:29:02.881Z,8.20
2018-03-30T22:31:29.969Z,8.20
2018-03-30T22:33:57.740Z,8.20
2018-03-30T22:36:25.489Z,8.20
2018-03-30T22:38:53.237Z,8.20
2018-03-30T22:41:20.244Z,8.20
2018-03-30T22:43:47.236Z,8.20
2018-03-30T22:46:14.318Z,8.20
2018-03-30T22:48:41.321Z,8.30
2018-03-30T22:51:09.109Z,8.20
2018-03-30T22:53:36.857Z,8.20
2018-03-30T22:56:03.869Z,8.20
2018-03-30T22:58:30.861Z,8.20
2018-03-30T23:00:58.609Z,8.20
2018-03-30T23:03:25.718Z,8.20
2018-03-30T23:05:52.697Z,8.20
2018-03-30T23:08:19.686Z,8.20
2018-03-30T23:10:46.685Z,8.20
2018-03-30T23:13:13.906Z,8.30
2018-03-30T23:15:40.889Z,8.30
2018-03-30T23:18:07.897Z,8.30
2018-03-30T23:20:34.880Z,8.30
2018-03-30T23:23:01.919Z,8.30
2018-03-30T23:25:28.925Z,8.30
2018-03-30T23:27:56.236Z,8.30
2018-03-30T23:30:23.180Z,8.30
2018-03-30T23:32:50.188Z,8.30
2018-03-30T23:35:17.174Z,8.20
2018-03-30T23:37:44.929Z,8.20
2018-03-30T23:40:13.529Z,8.20
2018-03-30T23:42:41.289Z,8.20
2018-03-30T23:45:09.055Z,8.20
2018-03-30T23:47:37.175Z,8.10
2018-03-30T23:50:04.173Z,8.10
2018-03-30T23:52:32.186Z,7.70
2018-03-30T23:54:59.218Z,7.70
2018-03-30T23:57:26.207Z,7.70
2018-03-30T23:59:53.193Z,7.70
